Terminal Aerodrome Forecast
Issued by NWS Grand Forks, ND

Home | Current Version | Previous Version | Text Only | Print | Product List | Glossary Off
Versions: 1 2 3 4 5 6 7 8 9 10 11 12 13

000
FTUS43 KFGF 241138
TAFFAR
TAF
KFAR 241138Z 2412/2512 29011KT P6SM BKN140
     FM241400 31012G22KT P6SM VCSH BKN045
     FM241700 31017G24KT P6SM BKN030
     FM242000 32020G28KT P6SM VCSH BKN040
     FM250000 33017KT P6SM VCSH OVC035
     FM250300 32011KT P6SM BKN035
     FM250900 31010KT P6SM SCT090=

USA.gov is the U.S. government's official web portal to all federal, state and local government web resources and services.